Time;durP1;ratioP1;P1;durP2;ratioP2;P2;SDS_P1;SDS_P2;PMS_P1;PMS_P2;Temp;Humidity;BMP_temperature;BMP_pressure;BME280_temperature;BME280_humidity;BME280_pressure;Samples;Min_cycle;Max_cycle;Signal;HPM_P1;HPM_P2
2022/07/28 00:02:01;;;;;;;3.77;1.80;;;;;;;18.41;59.02;98114.53;5056913;28;20227;-70
2022/07/28 00:04:27;;;;;;;3.27;1.50;;;;;;;18.40;59.15;98112.84;5057619;28;20226;-69
2022/07/28 00:06:54;;;;;;;2.17;1.60;;;;;;;18.25;59.58;98115.22;5057101;28;20216;-70
2022/07/28 00:09:20;;;;;;;3.73;1.67;;;;;;;18.10;60.62;98106.03;5056703;28;20685;-70
2022/07/28 00:11:47;;;;;;;2.47;1.63;;;;;;;17.99;61.29;98108.91;5056994;28;20207;-70
2022/07/28 00:14:14;;;;;;;5.90;2.00;;;;;;;17.98;61.19;98099.22;5056826;28;20673;-70
2022/07/28 00:16:41;;;;;;;2.50;1.80;;;;;;;18.05;61.27;98089.59;5054835;28;20218;-70
2022/07/28 00:19:07;;;;;;;3.77;1.90;;;;;;;18.12;60.28;98082.66;5057049;28;20462;-70
2022/07/28 00:21:34;;;;;;;1.70;1.60;;;;;;;18.19;60.26;98089.06;5056300;28;20236;-70
2022/07/28 00:24:01;;;;;;;3.23;1.70;;;;;;;18.14;60.33;98079.81;5056289;28;20226;-71
2022/07/28 00:26:27;;;;;;;2.60;1.60;;;;;;;18.05;61.10;98086.91;5057124;28;20212;-70
2022/07/28 00:28:54;;;;;;;2.13;1.70;;;;;;;18.00;61.47;98081.22;5056059;28;20709;-71
2022/07/28 00:31:21;;;;;;;3.23;1.50;;;;;;;18.02;61.15;98083.72;5056665;28;20216;-70
2022/07/28 00:33:48;;;;;;;3.53;1.80;;;;;;;17.99;60.68;98078.69;5056729;28;20584;-70
2022/07/28 00:36:14;;;;;;;11.53;1.93;;;;;;;17.95;61.04;98078.16;5057206;28;20212;-70
2022/07/28 00:38:41;;;;;;;3.50;2.00;;;;;;;17.90;61.32;98080.44;5056467;28;20215;-70
2022/07/28 00:41:10;;;;;;;2.07;1.87;;;;;;;17.94;61.13;98076.47;5056518;28;20223;-70
2022/07/28 00:43:37;;;;;;;5.70;1.90;;;;;;;17.95;60.54;98070.13;5054930;28;20212;-70
2022/07/28 00:46:04;;;;;;;3.40;1.80;;;;;;;17.74;61.67;98077.59;5057095;28;20226;-70
2022/07/28 00:48:32;;;;;;;3.67;1.73;;;;;;;17.81;61.29;98072.50;5056034;28;20239;-70
2022/07/28 00:50:58;;;;;;;3.47;1.90;;;;;;;17.78;61.54;98076.31;5056087;28;20239;-70
2022/07/28 00:53:25;;;;;;;2.13;1.80;;;;;;;17.61;62.58;98079.78;5055951;28;20220;-70
2022/07/28 00:55:52;;;;;;;3.50;1.90;;;;;;;17.44;64.10;98085.94;5056253;28;20216;-70
2022/07/28 00:58:18;;;;;;;1.57;1.47;;;;;;;17.34;65.34;98087.81;5054865;28;20216;-70
2022/07/28 01:00:45;;;;;;;3.13;1.83;;;;;;;17.27;66.04;98080.53;5055852;28;20235;-70
2022/07/28 01:03:11;;;;;;;2.23;1.57;;;;;;;17.19;66.16;98075.94;5055912;28;20217;-71
2022/07/28 01:05:53;;;;;;;1.70;1.23;;;;;;;17.18;65.46;98087.59;5056060;28;20215;-71
2022/07/28 01:08:37;;;;;;;3.07;1.80;;;;;;;17.17;65.45;98074.38;5052128;28;20705;-69
2022/07/28 01:11:08;;;;;;;1.70;1.50;;;;;;;17.16;65.19;98080.72;5055460;28;20577;-70
2022/07/28 01:13:41;;;;;;;1.60;1.50;;;;;;;17.17;65.30;98075.25;5054902;28;20685;-70
2022/07/28 01:16:08;;;;;;;2.10;1.80;;;;;;;17.25;64.43;98075.34;5056321;28;20224;-70
2022/07/28 01:18:41;;;;;;;4.93;2.50;;;;;;;17.30;63.91;98067.72;5055796;28;20217;-70
2022/07/28 01:21:13;;;;;;;3.43;2.17;;;;;;;17.38;63.75;98065.16;5056031;28;20322;-70
2022/07/28 01:23:54;;;;;;;1.90;1.70;;;;;;;17.44;63.32;98069.09;5056013;28;20215;-69
2022/07/28 01:26:39;;;;;;;2.50;1.60;;;;;;;17.39;64.10;98063.34;5041584;28;20227;-69
2022/07/28 01:29:31;;;;;;;2.33;1.50;;;;;;;17.30;64.08;98062.38;5055599;28;20243;-70
2022/07/28 01:32:04;;;;;;;2.90;1.77;;;;;;;17.23;65.98;98055.94;5056358;28;20276;-70
2022/07/28 01:34:36;;;;;;;5.13;1.90;;;;;;;17.16;66.52;98060.22;5053658;28;20235;-70
2022/07/28 01:37:07;;;;;;;2.47;1.53;;;;;;;17.14;66.53;98056.00;5055442;28;20738;-70
2022/07/28 01:39:35;;;;;;;2.00;1.80;;;;;;;17.13;65.27;98049.81;5055390;28;20723;-70
2022/07/28 01:42:04;;;;;;;2.80;1.70;;;;;;;17.28;63.84;98053.69;5039916;28;20239;-71
2022/07/28 01:44:34;;;;;;;4.23;2.10;;;;;;;17.22;64.12;98054.28;5055242;28;20223;-70
2022/07/28 01:47:06;;;;;;;2.17;1.40;;;;;;;17.17;65.06;98053.88;5055045;28;20220;-70
2022/07/28 01:49:34;;;;;;;2.17;1.80;;;;;;;17.14;65.49;98051.50;5055762;28;20301;-70
2022/07/28 01:52:02;;;;;;;4.17;1.90;;;;;;;17.15;64.71;98052.34;5054805;28;20256;-70
2022/07/28 01:54:30;;;;;;;3.30;1.90;;;;;;;17.20;64.41;98048.22;5055011;28;20211;-70
2022/07/28 01:56:59;;;;;;;2.40;1.57;;;;;;;17.17;64.54;98045.88;5055078;28;20212;-70
2022/07/28 01:59:28;;;;;;;2.47;1.50;;;;;;;17.16;65.01;98044.19;5055489;28;20674;-70
2022/07/28 02:01:55;;;;;;;2.17;1.60;;;;;;;17.16;64.94;98038.84;5053036;28;20727;-70
2022/07/28 02:04:25;;;;;;;2.77;1.70;;;;;;;17.15;65.34;98039.84;5055010;28;20218;-70
2022/07/28 02:06:54;;;;;;;2.20;1.53;;;;;;;17.06;66.07;98043.38;5054741;28;20223;-70
2022/07/28 02:09:22;;;;;;;3.17;2.00;;;;;;;16.93;67.05;98037.56;5055349;28;20622;-70
2022/07/28 02:11:53;;;;;;;2.63;1.80;;;;;;;16.90;67.48;98037.00;5039448;28;20220;-70
2022/07/28 02:14:23;;;;;;;2.50;1.80;;;;;;;16.86;67.39;98035.59;5054730;28;20547;-70
2022/07/28 02:16:54;;;;;;;4.00;1.80;;;;;;;16.87;66.99;98038.13;5054810;28;20227;-70
2022/07/28 02:19:23;;;;;;;2.80;1.70;;;;;;;16.77;67.78;98042.66;5055515;28;20558;-70
2022/07/28 02:21:50;;;;;;;2.63;1.73;;;;;;;16.77;67.65;98033.84;5054846;28;20624;-71
2022/07/28 02:24:20;;;;;;;2.30;2.10;;;;;;;16.84;67.09;98037.59;5054073;28;20212;-71
2022/07/28 02:26:52;;;;;;;2.37;1.60;;;;;;;16.87;66.97;98038.13;5052842;28;20212;-70
2022/07/28 02:29:23;;;;;;;2.30;1.70;;;;;;;16.75;68.15;98033.97;5055080;28;20331;-70
2022/07/28 02:31:54;;;;;;;2.47;1.60;;;;;;;16.70;68.51;98030.91;5054531;28;20509;-70
2022/07/28 02:34:25;;;;;;;2.97;1.60;;;;;;;16.66;68.82;98023.34;5054492;28;20298;-71
2022/07/28 02:36:57;;;;;;;2.40;1.83;;;;;;;16.69;68.05;98029.22;5054101;28;20670;-70
2022/07/28 02:39:28;;;;;;;2.17;1.77;;;;;;;16.72;67.66;98028.94;5054797;28;20247;-70
2022/07/28 02:42:00;;;;;;;3.20;1.70;;;;;;;16.73;67.74;98019.94;5054385;28;20212;-70
2022/07/28 02:44:35;;;;;;;3.37;2.07;;;;;;;16.72;67.75;98023.59;5054252;28;20216;-70
2022/07/28 02:47:08;;;;;;;4.70;1.83;;;;;;;16.75;67.75;98012.63;5054295;28;20216;-70
2022/07/28 02:49:37;;;;;;;2.37;1.27;;;;;;;16.76;66.97;98024.16;5039313;28;20239;-70
2022/07/28 02:52:06;;;;;;;2.70;1.67;;;;;;;16.81;66.67;98017.38;5053911;28;20299;-70
2022/07/28 02:54:35;;;;;;;2.60;1.50;;;;;;;16.77;67.82;98017.81;5052205;28;20290;-70
2022/07/28 02:57:03;;;;;;;1.73;1.57;;;;;;;16.77;67.05;98017.81;5054628;28;20216;-70
2022/07/28 02:59:31;;;;;;;3.00;1.50;;;;;;;16.78;66.79;98028.34;5054001;28;20226;-70
2022/07/28 03:01:59;;;;;;;3.30;1.70;;;;;;;16.75;66.66;98022.44;5054090;28;20655;-70
2022/07/28 03:07:08;;;;;;;1.83;1.40;;;;;;;16.55;68.50;98019.03;5053992;28;20211;-70
2022/07/28 03:09:39;;;;;;;3.60;1.87;;;;;;;16.68;66.86;98019.53;5053835;28;20243;-70
2022/07/28 03:12:06;;;;;;;1.97;1.50;;;;;;;16.74;66.85;98010.94;5053907;28;20218;-71
2022/07/28 03:14:33;;;;;;;2.17;1.80;;;;;;;16.68;67.14;98008.84;5053226;28;20223;-70
2022/07/28 03:16:59;;;;;;;1.57;1.43;;;;;;;16.62;67.41;98012.13;5053936;28;20216;-70
2022/07/28 03:19:26;;;;;;;2.80;1.60;;;;;;;16.48;67.94;98009.94;5052005;28;20216;-70
2022/07/28 03:21:52;;;;;;;2.23;1.90;;;;;;;16.50;67.49;98018.63;5053204;28;20583;-70
2022/07/28 03:24:23;;;;;;;2.03;1.43;;;;;;;16.46;67.91;98022.53;5053369;28;20687;-70
2022/07/28 03:26:55;;;;;;;1.73;1.53;;;;;;;16.39;68.04;98016.13;5054316;28;20216;-70
2022/07/28 03:29:24;;;;;;;2.87;1.50;;;;;;;16.34;68.56;98013.00;5053384;28;20250;-70
2022/07/28 03:31:54;;;;;;;4.87;1.80;;;;;;;16.34;68.46;98021.00;5053380;28;20242;-70
2022/07/28 03:34:21;;;;;;;2.53;1.77;;;;;;;16.25;69.22;98019.22;5052420;28;20216;-70
2022/07/28 03:36:52;;;;;;;1.70;1.33;;;;;;;16.18;69.70;98028.78;5053500;28;20584;-70
2022/07/28 03:39:19;;;;;;;3.10;1.63;;;;;;;16.15;69.70;98018.38;5053273;28;20584;-70
2022/07/28 03:41:48;;;;;;;3.13;1.43;;;;;;;16.03;70.54;98019.53;5053018;28;20212;-70
2022/07/28 03:44:15;;;;;;;3.53;1.50;;;;;;;16.02;70.94;98024.16;5052901;28;20678;-70
2022/07/28 03:46:44;;;;;;;1.97;1.57;;;;;;;16.03;70.57;98022.19;5052410;28;20250;-70
2022/07/28 03:49:10;;;;;;;3.30;1.60;;;;;;;16.00;70.78;98020.81;5053001;28;20244;-70
2022/07/28 03:51:37;;;;;;;2.33;1.60;;;;;;;15.98;70.92;98027.09;5053010;28;20224;-70
2022/07/28 03:54:04;;;;;;;4.67;1.70;;;;;;;15.98;70.95;98026.28;5052796;28;20208;-70
2022/07/28 03:56:30;;;;;;;3.67;1.93;;;;;;;16.02;71.20;98032.16;5053687;28;20212;-70
2022/07/28 03:58:58;;;;;;;2.00;1.70;;;;;;;16.00;71.50;98031.47;5052751;28;20675;-70
2022/07/28 04:01:25;;;;;;;3.20;1.73;;;;;;;15.93;71.75;98033.00;5052768;28;20208;-70
2022/07/28 04:03:51;;;;;;;3.43;1.90;;;;;;;15.87;72.56;98022.91;5052984;28;20219;-70
2022/07/28 04:06:18;;;;;;;4.83;1.80;;;;;;;15.91;72.44;98026.97;5052728;28;20678;-70
2022/07/28 04:08:45;;;;;;;3.83;1.83;;;;;;;15.90;72.44;98033.28;5052887;28;20681;-70
2022/07/28 04:11:11;;;;;;;2.33;1.83;;;;;;;15.90;72.47;98028.81;5051479;28;20223;-70
2022/07/28 04:13:38;;;;;;;3.23;1.70;;;;;;;15.94;72.57;98040.03;5052934;28;20208;-70
2022/07/28 04:16:06;;;;;;;3.43;1.60;;;;;;;15.93;72.85;98033.84;5053112;28;20216;-70
2022/07/28 04:18:33;;;;;;;2.63;1.70;;;;;;;15.94;73.37;98040.03;5053646;28;20239;-70
2022/07/28 04:21:00;;;;;;;2.70;1.87;;;;;;;15.99;73.56;98043.94;5052796;28;20246;-70
2022/07/28 04:23:26;;;;;;;2.83;1.60;;;;;;;16.11;72.20;98037.47;5053029;28;20274;-70
2022/07/28 04:25:53;;;;;;;2.83;1.77;;;;;;;16.26;71.65;98041.38;5052754;28;20207;-70
2022/07/28 04:28:19;;;;;;;2.50;2.00;;;;;;;16.37;70.88;98035.88;5053415;28;20220;-70
2022/07/28 04:30:46;;;;;;;4.50;1.90;;;;;;;16.40;70.66;98039.13;5052779;28;20582;-70
2022/07/28 04:33:13;;;;;;;3.17;1.93;;;;;;;16.51;69.88;98036.31;5052778;28;20216;-70
2022/07/28 04:35:40;;;;;;;2.60;1.80;;;;;;;16.55;69.76;98039.50;5052643;28;20216;-70
2022/07/28 04:38:07;;;;;;;2.63;1.70;;;;;;;16.64;70.09;98039.47;5051686;28;20209;-70
2022/07/28 04:40:34;;;;;;;3.57;2.50;;;;;;;16.69;69.89;98036.38;5052777;28;20227;-70
2022/07/28 04:43:02;;;;;;;2.73;1.87;;;;;;;16.80;69.45;98042.38;5052676;28;20208;-70
2022/07/28 04:45:29;;;;;;;2.43;2.00;;;;;;;16.88;68.92;98039.00;5052735;28;20251;-70
2022/07/28 04:47:55;;;;;;;2.67;1.70;;;;;;;17.05;67.91;98036.38;5056024;28;20216;-70
2022/07/28 04:50:23;;;;;;;2.40;1.57;;;;;;;17.06;67.62;98035.38;5055581;28;20619;-70
2022/07/28 04:52:50;;;;;;;3.17;1.90;;;;;;;17.11;67.86;98035.78;5055887;28;20234;-70
2022/07/28 04:55:17;;;;;;;2.87;1.90;;;;;;;17.13;68.05;98031.13;5056275;28;20234;-70
2022/07/28 04:57:44;;;;;;;2.17;1.60;;;;;;;17.19;67.47;98029.69;5056086;28;20219;-70
2022/07/28 05:00:12;;;;;;;3.40;1.90;;;;;;;17.23;67.42;98031.91;5056894;28;20222;-70
2022/07/28 05:02:39;;;;;;;6.03;2.17;;;;;;;17.25;67.28;98037.94;5054947;28;20220;-70
2022/07/28 05:05:06;;;;;;;3.03;1.90;;;;;;;17.32;67.26;98043.53;5055778;28;20225;-70
2022/07/28 05:07:34;;;;;;;2.87;2.00;;;;;;;17.32;67.41;98040.88;5055971;28;20219;-70
2022/07/28 05:10:00;;;;;;;3.37;2.00;;;;;;;17.40;67.81;98040.97;5056496;28;20341;-71
2022/07/28 05:12:27;;;;;;;2.67;2.13;;;;;;;17.41;67.32;98043.50;5056007;28;20212;-70
2022/07/28 05:14:53;;;;;;;2.50;2.20;;;;;;;17.31;68.23;98037.34;5055926;28;20216;-70
2022/07/28 05:17:20;;;;;;;2.47;1.90;;;;;;;17.29;68.09;98035.81;5055970;28;20223;-70
2022/07/28 05:19:46;;;;;;;5.47;2.50;;;;;;;17.30;68.04;98049.03;5056562;28;20208;-70
2022/07/28 05:22:13;;;;;;;4.00;2.13;;;;;;;17.20;69.38;98039.38;5055845;28;20236;-70
2022/07/28 05:24:40;;;;;;;3.03;2.20;;;;;;;17.28;68.97;98037.66;5055508;28;20215;-70
2022/07/28 05:27:07;;;;;;;3.80;2.20;;;;;;;17.41;68.54;98040.84;5055921;28;20226;-70
2022/07/28 05:29:37;;;;;;;2.90;2.20;;;;;;;17.85;67.50;98042.63;5054149;28;20235;-70
2022/07/28 05:32:04;;;;;;;4.53;2.30;;;;;;;18.43;64.93;98041.13;5055522;28;20212;-70
2022/07/28 05:34:31;;;;;;;3.37;2.23;;;;;;;18.72;63.20;98038.94;5055734;28;20212;-70
2022/07/28 05:36:57;;;;;;;4.30;2.13;;;;;;;18.83;62.50;98032.50;5055519;28;20208;-70
2022/07/28 05:39:24;;;;;;;5.97;2.50;;;;;;;19.14;61.79;98028.28;5055057;28;20212;-70
2022/07/28 05:41:52;;;;;;;3.73;2.60;;;;;;;19.79;59.55;98031.00;5056156;28;20222;-69
2022/07/28 05:44:18;;;;;;;2.60;2.10;;;;;;;20.50;56.89;98034.75;5055470;28;20216;-70
2022/07/28 05:46:45;;;;;;;4.13;2.13;;;;;;;21.24;55.09;98035.22;5055141;28;20222;-70
2022/07/28 05:49:11;;;;;;;2.90;1.90;;;;;;;21.83;53.45;98029.19;5054985;28;20691;-70
2022/07/28 05:51:38;;;;;;;3.00;2.10;;;;;;;22.27;51.57;98035.59;5055646;28;20223;-70
2022/07/28 05:54:04;;;;;;;3.80;2.30;;;;;;;22.15;51.39;98034.38;5055118;28;20218;-71
2022/07/28 05:56:31;;;;;;;3.47;2.30;;;;;;;22.25;50.76;98037.63;5053566;28;20215;-71
2022/07/28 05:58:59;;;;;;;4.10;2.40;;;;;;;22.47;50.18;98038.66;5054408;28;20222;-70
2022/07/28 06:01:25;;;;;;;3.33;2.33;;;;;;;22.69;49.82;98033.22;5055776;28;20212;-70
2022/07/28 06:03:52;;;;;;;8.13;2.40;;;;;;;23.12;48.96;98039.66;5055068;28;20212;-70
2022/07/28 06:06:19;;;;;;;3.43;2.07;;;;;;;23.47;48.15;98038.91;5055109;28;20577;-70
2022/07/28 06:08:47;;;;;;;2.70;2.20;;;;;;;23.94;47.69;98037.41;5054789;28;20218;-70
2022/07/28 06:11:15;;;;;;;3.43;2.10;;;;;;;24.51;45.93;98043.56;5054880;28;20240;-70
2022/07/28 06:13:45;;;;;;;2.40;2.20;;;;;;;24.82;45.00;98033.22;5054255;28;20694;-70
2022/07/28 06:16:12;;;;;;;2.77;2.23;;;;;;;25.23;44.46;98036.81;5054650;28;20223;-70
2022/07/28 06:18:39;;;;;;;3.73;2.30;;;;;;;25.34;43.79;98036.31;5054746;28;20212;-71
2022/07/28 06:21:06;;;;;;;3.07;2.13;;;;;;;25.63;43.64;98038.72;5052309;28;20360;-72
2022/07/28 06:23:32;;;;;;;4.87;1.97;;;;;;;25.53;43.67;98038.25;5055539;28;20223;-70
2022/07/28 06:25:59;;;;;;;2.30;2.10;;;;;;;25.76;43.99;98041.47;5054493;28;20212;-70
2022/07/28 06:28:25;;;;;;;2.63;2.30;;;;;;;25.68;43.00;98038.97;5054714;28;20212;-70
2022/07/28 06:30:52;;;;;;;3.23;2.37;;;;;;;26.03;43.40;98035.13;5049019;28;20246;-70
2022/07/28 06:33:20;;;;;;;2.63;2.30;;;;;;;26.17;42.75;98039.53;5055272;28;20212;-70
2022/07/28 06:35:46;;;;;;;3.00;2.53;;;;;;;26.39;42.40;98038.31;5054415;28;20220;-69
2022/07/28 06:38:13;;;;;;;3.23;2.50;;;;;;;26.62;42.19;98033.34;5054476;28;20223;-71
2022/07/28 06:40:39;;;;;;;4.90;2.47;;;;;;;26.59;42.00;98038.34;5054493;28;20220;-70
2022/07/28 06:43:07;;;;;;;2.83;2.30;;;;;;;26.47;42.41;98043.53;5055206;28;20220;-71
2022/07/28 06:45:33;;;;;;;5.00;2.70;;;;;;;26.59;42.22;98036.44;5054098;28;20224;-71
2022/07/28 06:48:00;;;;;;;3.90;2.60;;;;;;;26.63;41.80;98043.13;5052370;28;20216;-71
2022/07/28 06:50:28;;;;;;;3.83;2.50;;;;;;;26.49;41.94;98037.88;5053777;28;20705;-70
2022/07/28 06:52:55;;;;;;;4.53;2.73;;;;;;;26.04;43.03;98038.66;5053862;28;20219;-71
2022/07/28 06:55:22;;;;;;;3.50;3.07;;;;;;;25.70;44.01;98042.28;5053948;28;20673;-71
2022/07/28 06:57:48;;;;;;;3.07;2.73;;;;;;;25.49;44.68;98041.56;5054078;28;20215;-70
2022/07/28 07:00:15;;;;;;;3.80;2.83;;;;;;;24.92;46.20;98049.94;5054098;28;20218;-72
2022/07/28 07:02:42;;;;;;;3.43;2.80;;;;;;;23.99;47.90;98040.38;5053736;28;20216;-70
2022/07/28 07:05:11;;;;;;;3.07;2.77;;;;;;;23.03;50.27;98033.50;5054595;28;20221;-70
2022/07/28 07:07:39;;;;;;;3.67;3.23;;;;;;;22.53;52.81;98037.91;5053369;28;20669;-70
2022/07/28 07:10:06;;;;;;;4.70;3.37;;;;;;;22.15;54.01;98034.38;5053560;28;20239;-70
2022/07/28 07:12:33;;;;;;;4.40;3.33;;;;;;;22.03;55.21;98030.41;5050009;28;20219;-70
2022/07/28 07:15:00;;;;;;;5.63;3.47;;;;;;;21.95;56.52;98033.16;5051816;28;20228;-69
2022/07/28 07:17:27;;;;;;;4.37;3.77;;;;;;;21.94;56.71;98025.28;5053685;28;20212;-70
2022/07/28 07:19:53;;;;;;;4.30;3.53;;;;;;;21.86;57.01;98028.84;5053678;28;20597;-70
2022/07/28 07:22:20;;;;;;;3.70;3.40;;;;;;;21.71;58.11;98024.41;5053045;28;20236;-69
2022/07/28 07:24:48;;;;;;;4.53;3.57;;;;;;;21.77;57.96;98024.53;5054018;28;20216;-70
2022/07/28 07:27:14;;;;;;;5.77;3.83;;;;;;;21.84;57.97;98014.75;5053527;28;20223;-70
2022/07/28 07:29:41;;;;;;;7.20;3.73;;;;;;;21.87;58.77;98019.75;5053089;28;20215;-70
2022/07/28 07:32:07;;;;;;;4.03;3.63;;;;;;;21.93;58.78;98013.66;5053385;28;20220;-69
2022/07/28 07:34:34;;;;;;;5.17;3.77;;;;;;;21.99;59.01;98010.25;5053282;28;20220;-69
2022/07/28 07:37:00;;;;;;;4.20;3.67;;;;;;;22.13;58.90;98020.22;5053429;28;20214;-69
2022/07/28 07:39:27;;;;;;;4.80;3.77;;;;;;;22.23;58.12;98018.13;5051560;28;20219;-68
2022/07/28 07:41:55;;;;;;;5.57;4.13;;;;;;;22.25;57.02;98018.78;5052977;28;20649;-70
2022/07/28 07:44:21;;;;;;;5.67;4.00;;;;;;;22.13;58.49;98022.09;5053022;28;20222;-69
2022/07/28 07:46:48;;;;;;;5.63;3.83;;;;;;;22.11;58.49;98016.03;5053427;28;20219;-69
2022/07/28 07:49:15;;;;;;;5.30;4.27;;;;;;;21.96;58.51;98007.09;5053183;28;20212;-70
2022/07/28 07:51:42;;;;;;;4.77;4.20;;;;;;;22.26;60.38;98015.06;5053053;28;20267;-69
2022/07/28 07:54:08;;;;;;;6.37;4.50;;;;;;;22.23;58.66;98015.44;5052889;28;20212;-69
2022/07/28 07:56:35;;;;;;;4.30;3.90;;;;;;;22.31;60.58;98023.44;5053356;28;20652;-69
2022/07/28 07:59:03;;;;;;;5.80;4.50;;;;;;;22.46;60.49;98016.28;5053136;28;20311;-70
2022/07/28 08:01:29;;;;;;;7.20;4.43;;;;;;;22.61;59.16;98009.03;5052861;28;20670;-70
2022/07/28 08:03:58;;;;;;;5.40;4.60;;;;;;;22.70;57.72;98012.50;5052701;28;20753;-70
2022/07/28 08:06:26;;;;;;;5.10;4.60;;;;;;;22.76;58.18;98012.59;5051863;28;20303;-70
2022/07/28 08:08:53;;;;;;;4.63;4.20;;;;;;;22.74;57.90;98009.25;5052836;28;20215;-70
2022/07/28 08:11:19;;;;;;;6.73;5.07;;;;;;;22.84;56.79;98004.41;5052853;28;20239;-70
2022/07/28 08:13:46;;;;;;;4.67;4.27;;;;;;;22.84;57.18;98004.41;5052884;28;20212;-70
2022/07/28 08:16:14;;;;;;;5.37;4.70;;;;;;;22.92;58.82;98015.09;5053103;28;20212;-70
2022/07/28 08:18:40;;;;;;;5.90;4.80;;;;;;;23.03;59.09;98009.25;5052815;28;20219;-71
2022/07/28 08:21:06;;;;;;;5.97;4.53;;;;;;;23.06;58.38;98003.50;5053851;28;20240;-71
2022/07/28 08:23:33;;;;;;;5.43;4.93;;;;;;;23.23;59.12;98004.97;5056878;28;20216;-71
2022/07/28 08:26:01;;;;;;;5.40;4.90;;;;;;;23.43;58.64;98011.47;5056591;28;20218;-70
2022/07/28 08:28:28;;;;;;;5.70;4.70;;;;;;;23.58;57.57;98012.28;5057067;28;20221;-71
2022/07/28 08:30:54;;;;;;;5.13;4.73;;;;;;;23.70;56.62;98008.06;5056331;28;20605;-70
2022/07/28 08:33:22;;;;;;;5.50;5.00;;;;;;;23.86;56.80;98013.22;5055445;28;20211;-69
2022/07/28 08:35:49;;;;;;;4.93;4.53;;;;;;;23.99;57.14;98002.59;5056661;28;20212;-69
2022/07/28 08:38:16;;;;;;;5.13;4.63;;;;;;;24.11;56.23;98000.19;5057225;28;20212;-69
2022/07/28 08:40:48;;;;;;;6.57;5.00;;;;;;;24.25;56.99;98002.00;5056243;28;20265;-69
2022/07/28 08:43:24;;;;;;;6.47;4.83;;;;;;;24.38;56.40;98002.13;5056327;28;20220;-69
2022/07/28 08:45:52;;;;;;;5.00;4.50;;;;;;;24.45;56.59;98000.28;5056531;28;20207;-69
2022/07/28 08:48:23;;;;;;;5.97;4.57;;;;;;;24.54;56.37;97997.25;5056942;28;20219;-69
2022/07/28 08:50:51;;;;;;;5.20;4.80;;;;;;;24.72;54.80;97992.22;5056330;28;20244;-70
2022/07/28 08:53:20;;;;;;;5.60;4.90;;;;;;;24.78;55.86;97998.69;5056409;28;20286;-69
2022/07/28 08:55:47;;;;;;;6.67;4.80;;;;;;;24.80;55.84;98000.16;5056292;28;20219;-69
2022/07/28 08:58:16;;;;;;;4.93;4.50;;;;;;;24.96;55.54;97999.84;5055157;28;20219;-71
2022/07/28 09:00:43;;;;;;;5.43;4.70;;;;;;;25.03;53.27;97986.34;5055996;28;20220;-69
2022/07/28 09:03:11;;;;;;;4.57;4.17;;;;;;;25.00;54.87;97986.78;5056218;28;20216;-69
2022/07/28 09:05:41;;;;;;;5.47;4.97;;;;;;;25.17;53.61;97988.13;5056083;28;20235;-70
2022/07/28 09:08:08;;;;;;;5.50;5.00;;;;;;;25.11;55.04;97989.72;5056848;28;20223;-70
2022/07/28 09:10:35;;;;;;;5.37;4.87;;;;;;;25.16;55.10;97981.00;5056056;28;20235;-70
2022/07/28 09:13:01;;;;;;;5.50;4.30;;;;;;;25.28;54.24;97974.03;5055797;28;20215;-70
2022/07/28 09:15:28;;;;;;;5.97;4.80;;;;;;;25.33;53.48;97980.53;5055714;28;20704;-70
2022/07/28 09:17:55;;;;;;;5.75;4.70;;;;;;;25.34;52.76;97981.34;5056377;28;20700;-70
2022/07/28 09:20:23;;;;;;;4.90;4.50;;;;;;;25.37;53.82;97984.47;5055709;28;20725;-70
2022/07/28 09:23:00;;;;;;;4.97;4.55;;;;;;;25.31;53.34;97990.69;5055924;28;20212;-70
2022/07/28 09:25:27;;;;;;;4.90;4.40;;;;;;;25.29;53.54;97976.53;5054820;28;20220;-70
2022/07/28 09:27:54;;;;;;;4.77;4.37;;;;;;;25.36;55.04;97979.28;5056187;28;20247;-69
2022/07/28 09:30:29;;;;;;;4.93;4.50;;;;;;;25.44;53.22;97969.13;5055855;28;20222;-70
2022/07/28 09:33:18;;;;;;;4.97;4.47;;;;;;;25.49;53.89;97972.03;5054335;28;20633;-69
2022/07/28 09:35:46;;;;;;;4.93;4.53;;;;;;;25.67;53.56;97964.16;5056009;28;20598;-70
2022/07/28 09:38:14;;;;;;;6.77;4.77;;;;;;;25.75;52.00;97965.84;5055310;28;20212;-70
2022/07/28 09:40:41;;;;;;;5.15;4.65;;;;;;;25.94;51.78;97971.34;5055274;28;21602;-69
2022/07/28 09:43:08;;;;;;;4.65;4.22;;;;;;;25.99;51.22;97966.16;5055331;28;20564;-70
2022/07/28 09:45:35;;;;;;;5.05;4.55;;;;;;;25.98;51.25;97964.47;5056038;28;20212;-70
2022/07/28 09:48:10;;;;;;;6.73;4.73;;;;;;;26.02;52.54;97968.44;5055128;28;20220;-70
2022/07/28 09:50:37;;;;;;;5.15;4.65;;;;;;;26.24;51.87;97961.81;5053582;28;20235;-70
2022/07/28 09:53:21;;;;;;;5.27;4.70;;;;;;;26.57;50.87;97950.97;5055023;28;20226;-70
2022/07/28 09:55:55;;;;;;;5.35;4.80;;;;;;;26.82;48.91;97950.06;5054260;28;20212;-70
2022/07/28 09:58:21;;;;;;;6.77;4.50;;;;;;;26.72;50.07;97949.69;5055180;28;20223;-70
2022/07/28 10:00:48;;;;;;;5.35;3.97;;;;;;;26.72;49.93;97948.84;5055140;28;20217;-70
2022/07/28 10:03:24;;;;;;;4.75;4.35;;;;;;;26.77;49.91;97947.16;5054809;28;20227;-70
2022/07/28 10:05:51;;;;;;;5.13;4.63;;;;;;;26.88;50.86;97943.81;5055104;28;20216;-71
2022/07/28 10:08:19;;;;;;;5.10;4.30;;;;;;;27.08;49.73;97933.75;5055166;28;20306;-70
2022/07/28 10:10:58;;;;;;;4.75;4.35;;;;;;;27.19;49.29;97943.94;5054647;28;20236;-70
2022/07/28 10:13:25;;;;;;;5.20;4.00;;;;;;;27.26;48.98;97946.66;5055232;28;20689;-70
2022/07/28 10:16:11;;;;;;;4.60;4.20;;;;;;;27.34;47.76;97937.19;5053275;28;20212;-70
2022/07/28 10:18:38;;;;;;;4.85;4.45;;;;;;;27.26;48.46;97936.59;5054538;28;20211;-70
2022/07/28 10:21:08;;;;;;;4.47;4.00;;;;;;;27.08;48.64;97931.03;5043391;28;20744;-70
2022/07/28 10:23:38;;;;;;;5.47;4.40;;;;;;;27.17;48.75;97935.19;5053841;28;20224;-72
2022/07/28 10:26:06;;;;;;;4.97;4.57;;;;;;;27.47;48.60;97928.16;5054766;28;20269;-70
2022/07/28 10:28:36;;;;;;;4.97;4.47;;;;;;;27.54;47.13;97927.09;5054304;28;20208;-71
2022/07/28 10:31:05;;;;;;;5.95;4.53;;;;;;;27.53;47.01;97927.31;5053003;28;20238;-71
2022/07/28 10:33:32;;;;;;;5.40;4.57;;;;;;;27.72;47.45;97915.47;5053844;28;20218;-70
2022/07/28 10:36:00;;;;;;;4.60;4.20;;;;;;;27.83;47.03;97923.78;5053776;28;20212;-70
2022/07/28 10:38:34;;;;;;;4.95;4.45;;;;;;;27.95;46.35;97916.59;5054385;28;20216;-70
2022/07/28 10:41:06;;;;;;;5.20;4.70;;;;;;;28.08;47.12;97923.81;5054510;28;20277;-70
2022/07/28 10:43:33;;;;;;;4.55;4.15;;;;;;;28.06;45.97;97917.78;5037430;28;20638;-70
2022/07/28 10:45:59;;;;;;;5.85;4.32;;;;;;;28.15;44.92;97920.00;5053394;28;20212;-71
2022/07/28 10:48:26;;;;;;;4.75;4.35;;;;;;;28.27;44.64;97920.09;5045878;28;20212;-71
2022/07/28 10:50:54;;;;;;;4.63;4.18;;;;;;;28.22;45.19;97911.78;5051562;28;20220;-73
2022/07/28 10:53:36;;;;;;;4.32;3.95;;;;;;;27.91;45.23;97909.09;5051335;28;20303;-69
2022/07/28 10:56:11;;;;;;;5.85;4.90;;;;;;;27.73;44.98;97909.00;5052684;28;20212;-70
2022/07/28 10:58:48;;;;;;;5.63;4.25;;;;;;;27.48;46.10;97912.72;5052499;28;20589;-69
2022/07/28 11:01:36;;;;;;;4.68;4.28;;;;;;;27.56;46.50;97916.00;5053303;28;20451;-69
2022/07/28 11:04:02;;;;;;;4.47;4.07;;;;;;;27.59;46.13;97921.00;5052745;28;20212;-69
2022/07/28 11:06:33;;;;;;;5.10;4.10;;;;;;;27.64;45.67;97913.03;5051947;28;20307;-69
2022/07/28 11:09:20;;;;;;;4.63;4.07;;;;;;;28.08;45.73;97905.66;5051546;28;20212;-69
2022/07/28 11:11:50;;;;;;;4.78;4.38;;;;;;;28.29;45.51;97907.13;5052541;28;20262;-69
2022/07/28 11:14:32;;;;;;;4.65;4.25;;;;;;;28.39;43.73;97907.50;5051285;28;20216;-70
2022/07/28 11:17:19;;;;;;;4.90;4.40;;;;;;;28.57;44.04;97902.94;5049694;28;20223;-71
2022/07/28 11:19:56;;;;;;;4.20;3.80;;;;;;;28.65;44.16;97899.06;5051534;28;20219;-73
2022/07/28 11:22:31;;;;;;;4.32;4.03;;;;;;;28.77;44.84;97894.53;5051801;28;20239;-70
2022/07/28 11:25:14;;;;;;;4.35;3.60;;;;;;;28.91;43.42;97896.88;5042490;28;20220;-71
2022/07/28 11:28:04;;;;;;;4.13;3.72;;;;;;;28.96;42.85;97893.50;5053092;28;20212;-72
2022/07/28 11:30:50;;;;;;;4.30;3.97;;;;;;;28.85;42.82;97895.06;5056643;28;20216;-73
2022/07/28 11:33:18;;;;;;;4.70;4.20;;;;;;;28.81;42.43;97896.56;5053628;28;20212;-73
2022/07/28 11:35:59;;;;;;;4.57;4.22;;;;;;;28.73;43.26;97894.16;5038398;28;20706;-73
2022/07/28 11:38:26;;;;;;;4.30;3.90;;;;;;;28.71;43.53;97890.84;5045601;28;20216;-73
2022/07/28 11:40:55;;;;;;;4.22;3.83;;;;;;;28.73;43.99;97898.78;5045212;28;20303;-73
2022/07/28 11:43:33;;;;;;;5.25;4.15;;;;;;;28.84;43.76;97900.72;5040326;28;20217;-73
2022/07/28 11:46:22;;;;;;;5.60;4.28;;;;;;;29.02;43.91;97888.00;5040611;28;20316;-73